createdAt,value
2023-02-16T00:02:54.540Z,5.20
2023-02-16T00:06:58.206Z,5.30
2023-02-16T00:11:19.764Z,5.30
2023-02-16T00:15:22.915Z,5.30
2023-02-16T00:19:27.445Z,5.30
2023-02-16T00:23:30.147Z,5.40
2023-02-16T00:27:34.214Z,5.40
2023-02-16T00:31:37.042Z,5.40
2023-02-16T00:35:39.878Z,5.40
2023-02-16T00:39:44.212Z,5.40
2023-02-16T00:43:48.371Z,5.40
2023-02-16T00:47:53.179Z,5.40
2023-02-16T00:51:56.338Z,5.50
2023-02-16T00:55:59.045Z,5.60
2023-02-16T01:00:06.897Z,5.70
2023-02-16T01:04:14.855Z,5.70
2023-02-16T01:08:36.221Z,5.70
2023-02-16T01:12:40.267Z,5.70
2023-02-16T01:16:44.321Z,5.70
2023-02-16T01:20:49.608Z,5.70
2023-02-16T01:24:52.313Z,5.60
2023-02-16T01:28:54.991Z,5.50
2023-02-16T01:32:59.033Z,5.60
2023-02-16T01:37:01.751Z,5.60
2023-02-16T01:41:22.417Z,5.50
2023-02-16T01:45:33.361Z,5.60
2023-02-16T01:49:37.390Z,5.50
2023-02-16T01:53:43.248Z,5.50
2023-02-16T01:57:48.407Z,5.50
2023-02-16T02:01:55.670Z,5.50
2023-02-16T02:05:58.933Z,5.40
2023-02-16T02:10:08.275Z,5.40
2023-02-16T02:14:17.801Z,5.40
2023-02-16T02:18:20.529Z,5.30
2023-02-16T02:23:13.436Z,5.30
2023-02-16T02:27:23.593Z,5.30
2023-02-16T02:31:36.967Z,5.20
2023-02-16T02:35:48.650Z,5.00
2023-02-16T02:40:00.288Z,5.10
2023-02-16T02:44:07.546Z,5.10
2023-02-16T02:48:10.509Z,5.20
2023-02-16T02:52:13.384Z,5.40
2023-02-16T02:56:36.838Z,5.50
2023-02-16T03:00:47.153Z,5.40
2023-02-16T03:04:53.463Z,5.20
2023-02-16T03:09:01.322Z,5.00
2023-02-16T03:13:05.968Z,4.80
2023-02-16T03:17:31.383Z,4.50
2023-02-16T03:21:52.815Z,4.30
2023-02-16T03:26:13.463Z,4.00
2023-02-16T03:30:19.955Z,3.80
2023-02-16T03:34:25.182Z,3.60
2023-02-16T03:38:28.282Z,3.50
2023-02-16T03:42:31.046Z,3.30
2023-02-16T03:46:34.413Z,3.20
2023-02-16T03:50:38.636Z,3.10
2023-02-16T03:54:41.372Z,3.00
2023-02-16T03:58:44.191Z,2.90
2023-02-16T04:02:47.015Z,2.70
2023-02-16T04:06:51.097Z,2.60
2023-02-16T04:10:54.209Z,2.60
2023-02-16T04:14:56.959Z,2.50
2023-02-16T04:18:59.642Z,2.50
2023-02-16T04:23:04.070Z,2.50
2023-02-16T04:27:07.160Z,2.40
2023-02-16T04:31:10.062Z,2.20
2023-02-16T04:35:13.239Z,2.20
2023-02-16T04:39:17.689Z,2.10
2023-02-16T04:43:20.451Z,2.00
2023-02-16T04:47:25.756Z,2.00
2023-02-16T04:51:28.527Z,2.00
2023-02-16T04:55:32.698Z,2.00
2023-02-16T04:59:35.715Z,2.00
2023-02-16T05:03:38.435Z,1.90
2023-02-16T05:07:41.149Z,1.90
2023-02-16T05:12:02.902Z,2.10
2023-02-16T05:16:08.733Z,2.30
2023-02-16T05:20:12.794Z,2.50
2023-02-16T05:24:15.837Z,2.80
2023-02-16T05:28:19.915Z,3.10
2023-02-16T05:32:23.401Z,3.50
2023-02-16T05:36:26.326Z,3.70
2023-02-16T05:40:29.280Z,3.90
2023-02-16T05:44:33.416Z,4.00
2023-02-16T05:48:36.286Z,4.00
2023-02-16T05:52:39.008Z,3.80
2023-02-16T05:56:41.722Z,3.60
2023-02-16T06:00:45.752Z,3.50
2023-02-16T06:04:48.537Z,3.50
2023-02-16T06:08:51.264Z,3.50
2023-02-16T06:12:54.075Z,3.60
2023-02-16T06:16:58.932Z,3.80
2023-02-16T06:21:02.153Z,3.90
2023-02-16T06:25:05.889Z,4.10
2023-02-16T06:29:08.742Z,4.20
2023-02-16T06:33:12.801Z,4.30
2023-02-16T06:37:15.558Z,4.40
2023-02-16T06:41:31.438Z,4.40
2023-02-16T06:45:37.404Z,4.40
2023-02-16T06:49:41.726Z,4.40
2023-02-16T06:53:44.663Z,4.20
2023-02-16T06:57:47.417Z,4.10
2023-02-16T07:01:50.159Z,4.00
2023-02-16T07:05:54.262Z,4.10
2023-02-16T07:09:56.946Z,3.90
2023-02-16T07:13:59.854Z,3.90
2023-02-16T07:18:02.577Z,4.10
2023-02-16T07:22:06.613Z,4.10
2023-02-16T07:26:09.644Z,4.00
2023-02-16T07:30:16.364Z,4.00
2023-02-16T07:34:20.976Z,4.10
2023-02-16T07:38:26.296Z,4.20
2023-02-16T07:46:35.433Z,4.70
2023-02-16T07:50:39.343Z,4.90
2023-02-16T07:54:43.812Z,5.00
2023-02-16T07:58:47.343Z,5.30
2023-02-16T08:02:50.774Z,5.70
2023-02-16T08:06:53.608Z,6.20
2023-02-16T08:10:57.736Z,6.40
2023-02-16T08:15:00.743Z,6.70
2023-02-16T08:19:05.265Z,6.90
2023-02-16T08:23:10.246Z,7.20
2023-02-16T08:27:14.310Z,7.50
2023-02-16T08:31:18.901Z,7.60
2023-02-16T08:35:21.863Z,7.70
2023-02-16T08:39:27.110Z,7.90
2023-02-16T08:43:31.158Z,8.20
2023-02-16T08:47:36.471Z,8.20
2023-02-16T08:51:42.563Z,8.20
2023-02-16T08:55:52.799Z,8.10
2023-02-16T09:00:10.811Z,8.10
2023-02-16T09:04:14.264Z,8.00
2023-02-16T09:08:17.317Z,7.90
2023-02-16T09:12:20.157Z,7.90
2023-02-16T09:16:27.866Z,7.90
2023-02-16T09:20:31.073Z,7.90
2023-02-16T09:24:33.972Z,7.90
2023-02-16T09:28:38.491Z,8.00
2023-02-16T09:32:43.138Z,8.10
2023-02-16T09:36:47.141Z,8.20
2023-02-16T09:40:50.511Z,8.30
2023-02-16T09:44:59.611Z,8.40
2023-02-16T09:49:04.964Z,8.70
2023-02-16T09:53:11.580Z,9.10
2023-02-16T09:57:22.062Z,9.30
2023-02-16T10:01:31.764Z,9.30
2023-02-16T10:05:44.490Z,9.00
2023-02-16T10:09:52.318Z,8.80
2023-02-16T10:13:57.953Z,8.70
2023-02-16T10:18:04.304Z,8.60
2023-02-16T10:22:17.331Z,8.70
2023-02-16T10:26:26.773Z,8.80
2023-02-16T10:30:32.667Z,9.00
2023-02-16T10:34:46.287Z,9.40
2023-02-16T10:38:57.837Z,9.50
2023-02-16T10:43:07.844Z,9.50
2023-02-16T10:47:20.053Z,9.70
2023-02-16T10:51:28.848Z,10.00
2023-02-16T10:55:32.912Z,10.30
2023-02-16T10:59:39.922Z,10.40
2023-02-16T11:03:47.621Z,10.70
2023-02-16T11:07:54.480Z,11.10
2023-02-16T11:11:58.949Z,11.70
2023-02-16T11:16:06.828Z,11.90
2023-02-16T11:20:28.524Z,11.90
2023-02-16T11:24:33.222Z,12.00
2023-02-16T11:28:39.491Z,12.10
2023-02-16T11:32:42.225Z,12.20
2023-02-16T11:36:46.865Z,12.30
2023-02-16T11:40:53.281Z,12.30
2023-02-16T11:44:59.327Z,12.40
2023-02-16T11:49:22.180Z,12.40
2023-02-16T11:53:27.897Z,12.30
2023-02-16T11:57:33.722Z,12.30
2023-02-16T12:02:00.461Z,12.30
2023-02-16T12:06:13.230Z,12.20
2023-02-16T12:10:23.024Z,12.20
2023-02-16T12:14:37.155Z,12.20
2023-02-16T12:18:47.937Z,12.10
2023-02-16T12:22:56.486Z,12.00
2023-02-16T12:27:01.809Z,12.00
2023-02-16T12:31:12.797Z,12.00
2023-02-16T12:35:49.480Z,11.90
2023-02-16T12:40:00.672Z,11.80
2023-02-16T12:44:08.973Z,11.80
2023-02-16T12:48:27.269Z,11.80
2023-02-16T12:52:38.497Z,11.80
2023-02-16T12:56:45.725Z,11.80
2023-02-16T13:00:52.330Z,11.80
2023-02-16T13:05:01.665Z,11.80
2023-02-16T13:09:16.117Z,11.80
2023-02-16T13:13:22.581Z,11.80
2023-02-16T13:17:34.003Z,11.80
2023-02-16T13:21:52.133Z,11.80
2023-02-16T13:26:11.428Z,11.80
2023-02-16T13:30:45.851Z,11.70
2023-02-16T13:35:01.365Z,11.70
2023-02-16T13:39:31.521Z,11.70
2023-02-16T13:43:41.941Z,11.60
2023-02-16T13:47:45.385Z,11.40
2023-02-16T13:51:48.450Z,11.30
2023-02-16T13:56:11.294Z,11.20
2023-02-16T14:00:29.869Z,11.10
2023-02-16T14:05:01.679Z,11.00
2023-02-16T14:09:34.615Z,10.90
2023-02-16T14:13:51.406Z,10.80
2023-02-16T14:17:55.560Z,10.80
2023-02-16T14:22:10.077Z,10.90
2023-02-16T14:26:14.831Z,10.90
2023-02-16T14:30:24.860Z,11.10
2023-02-16T14:34:34.027Z,11.20
2023-02-16T14:38:38.321Z,11.20
2023-02-16T14:42:49.232Z,11.30
2023-02-16T14:47:03.736Z,11.30
2023-02-16T14:51:28.719Z,11.40
2023-02-16T14:56:25.648Z,11.50
2023-02-16T15:00:36.005Z,11.50
2023-02-16T15:04:39.679Z,11.50
2023-02-16T15:08:48.952Z,11.50
2023-02-16T15:12:52.785Z,11.60
2023-02-16T15:16:58.191Z,11.50
2023-02-16T15:21:02.155Z,11.50
2023-02-16T15:25:17.909Z,11.50
2023-02-16T15:29:23.638Z,11.40
2023-02-16T15:33:36.237Z,11.40
2023-02-16T15:37:40.472Z,11.30
2023-02-16T15:41:47.305Z,11.20
2023-02-16T15:45:52.803Z,11.10
2023-02-16T15:49:56.538Z,11.10
2023-02-16T15:54:01.872Z,11.00
2023-02-16T15:58:06.575Z,10.90
2023-02-16T16:02:14.537Z,10.90
2023-02-16T16:06:17.536Z,10.80
2023-02-16T16:10:25.023Z,10.80
2023-02-16T16:14:31.115Z,10.70
2023-02-16T16:18:46.116Z,10.70
2023-02-16T16:22:57.208Z,10.70
2023-02-16T16:27:02.304Z,10.60
2023-02-16T16:31:12.115Z,10.60
2023-02-16T16:35:22.672Z,10.50
2023-02-16T16:39:28.623Z,10.40
2023-02-16T16:43:33.213Z,10.30
2023-02-16T16:47:39.982Z,10.30
2023-02-16T16:51:44.379Z,10.20
2023-02-16T16:55:48.010Z,10.20
2023-02-16T16:59:51.027Z,10.10
2023-02-16T17:03:55.881Z,10.00
2023-02-16T17:07:58.848Z,9.90
2023-02-16T17:12:02.985Z,9.90
2023-02-16T17:16:12.241Z,9.90
2023-02-16T17:20:17.899Z,9.90
2023-02-16T17:24:20.714Z,9.80
2023-02-16T17:28:23.658Z,9.70
2023-02-16T17:32:26.508Z,9.70
2023-02-16T17:36:31.040Z,9.60
2023-02-16T17:40:33.945Z,9.60
2023-02-16T17:44:36.657Z,9.60
2023-02-16T17:48:39.620Z,9.60
2023-02-16T17:52:44.753Z,9.70
2023-02-16T17:56:47.872Z,9.70
2023-02-16T18:00:51.056Z,9.70
2023-02-16T18:04:54.216Z,9.70
2023-02-16T18:08:58.967Z,9.80
2023-02-16T18:13:01.925Z,9.90
2023-02-16T18:17:06.740Z,9.90
2023-02-16T18:21:09.543Z,9.90
2023-02-16T18:25:13.920Z,9.90
2023-02-16T18:29:16.925Z,9.80
2023-02-16T18:33:22.020Z,9.90
2023-02-16T18:37:25.560Z,9.90
2023-02-16T18:41:29.864Z,9.90
2023-02-16T18:45:32.726Z,9.90
2023-02-16T18:49:35.579Z,10.00
2023-02-16T18:53:38.971Z,10.00
2023-02-16T18:57:43.173Z,10.00
2023-02-16T19:01:46.895Z,10.00
2023-02-16T19:05:49.660Z,10.00
2023-02-16T19:09:52.596Z,10.00
2023-02-16T19:13:58.852Z,10.10
2023-02-16T19:18:01.903Z,10.10
2023-02-16T19:22:04.958Z,10.10
2023-02-16T19:26:09.314Z,10.10
2023-02-16T19:30:13.968Z,10.10
2023-02-16T19:34:18.623Z,10.20
2023-02-16T19:38:21.351Z,10.20
2023-02-16T19:42:24.191Z,10.10
2023-02-16T19:46:31.447Z,10.20
2023-02-16T19:50:34.319Z,10.20
2023-02-16T19:54:40.031Z,10.20
2023-02-16T19:58:43.729Z,10.20
2023-02-16T20:02:47.859Z,10.20
2023-02-16T20:06:51.429Z,10.10
2023-02-16T20:10:54.231Z,10.10
2023-02-16T20:14:58.793Z,10.10
2023-02-16T20:19:04.536Z,10.10
2023-02-16T20:23:08.587Z,10.10
2023-02-16T20:27:11.863Z,10.20
2023-02-16T20:31:17.269Z,10.20
2023-02-16T20:35:21.629Z,10.20
2023-02-16T20:39:24.905Z,10.10
2023-02-16T20:43:28.024Z,10.10
2023-02-16T20:47:30.763Z,10.10
2023-02-16T20:51:35.709Z,10.00
2023-02-16T20:55:38.410Z,10.00
2023-02-16T20:59:41.143Z,10.00
2023-02-16T21:03:44.208Z,10.00
2023-02-16T21:07:49.981Z,9.90
2023-02-16T21:11:52.862Z,9.90
2023-02-16T21:15:58.614Z,9.90
2023-02-16T21:20:01.378Z,9.90
2023-02-16T21:24:05.867Z,9.80
2023-02-16T21:28:08.562Z,9.80
2023-02-16T21:32:11.926Z,9.80
2023-02-16T21:36:16.839Z,9.80
2023-02-16T21:40:38.077Z,9.70
2023-02-16T21:45:12.288Z,9.70
2023-02-16T21:49:17.087Z,9.60
2023-02-16T21:53:19.810Z,9.50
2023-02-16T21:57:25.955Z,9.40
2023-02-16T22:01:30.724Z,9.50
2023-02-16T22:05:34.917Z,9.40
2023-02-16T22:09:37.712Z,9.40
2023-02-16T22:13:42.353Z,9.40
2023-02-16T22:17:45.214Z,9.40
2023-02-16T22:21:49.462Z,9.40
2023-02-16T22:25:52.305Z,9.40
2023-02-16T22:29:56.487Z,9.50
2023-02-16T22:34:01.526Z,9.50
2023-02-16T22:38:06.480Z,9.50
2023-02-16T22:42:09.228Z,9.50
2023-02-16T22:46:15.249Z,9.50
2023-02-16T22:50:18.218Z,9.50
2023-02-16T22:54:23.162Z,9.60
2023-02-16T22:58:26.273Z,9.60
2023-02-16T23:02:34.629Z,9.60
2023-02-16T23:06:41.779Z,9.70
2023-02-16T23:10:59.818Z,9.70
2023-02-16T23:15:02.608Z,9.70
2023-02-16T23:19:06.664Z,9.70
2023-02-16T23:23:09.386Z,9.80
2023-02-16T23:27:12.096Z,9.90
2023-02-16T23:31:14.807Z,9.90
2023-02-16T23:35:19.092Z,9.90
2023-02-16T23:39:21.843Z,9.90
2023-02-16T23:43:24.692Z,9.90
2023-02-16T23:47:27.676Z,9.90
2023-02-16T23:51:32.043Z,10.00
2023-02-16T23:55:34.758Z,10.00
2023-02-16T23:59:38.038Z,10.00
